Aerial Acres, CA

11:35 AM PDT on July 24, 2016 (GMT -0700)
Edwards Air Force Base | | Change Station

Elev 2313 ft 34.91 °N, 117.88 °W | Updated 28 minutes ago

Scattered Clouds
Scattered Clouds
99 °F
Feels Like 99 °F
N
17
Wind Variable Wind from SW
Gusts 23 mph

Today
High -- | Low -- °F
--% Chance of Precip.
Yesterday
High -- | Low -- °F
Precip. -- in
Pressure 29.91 in
Visibility 20.0 miles
Clouds Few 0 ft
Scattered Clouds 8000 ft
Dew Point 21 °F
Humidity 6%
Rainfall 0.00 in
Snow Depth Not available.
5:55 AM 8:00 PM
Waning Gibbous, 74% visible
SPECI KEDW 241807Z 23015G20KT 20SM FEW000 SCT080 37/M06 A2991 RMK AO2A FU FEW000 FU SCT080
Pressure 29.91 in
Visibility 20.0 miles
Clouds Few 0 ft
Scattered Clouds 8000 ft
Dew Point 21 °F
Humidity 6%
Rainfall 0.00 in
Snow Depth Not available.
5:55 AM 8:00 PM
Waning Gibbous, 74% visible
SPECI KEDW 241807Z 23015G20KT 20SM FEW000 SCT080 37/M06 A2991 RMK AO2A FU FEW000 FU SCT080

10-Day Weather Forecast

Almanac

Astronomy

Jul. 24, 2016 Rise Set
Actual Time
Civil Twilight
Nautical Twilight
Astronomical Twilight
Moon
Length of Visible Light
Length of Day
Tomorrow will be .
, % of the Moon is Illuminated

Today's Extremes

State Highs State Lows

Community

WunderPhotos

Upload Photos

1,927,153 photos uploaded!

WunderBlog® & News

Nearby

Air Quality

  Air Quality AQ Index Pollutant
Not available.

Snow Depth

Station Depth Elevation

Earthquake Activity

City Distance Mag. Time & Date
Minimum magnitude displayed is 2.5.

Coastal Water Temperatures

Place Temperature

Stations

Nearby Weather Stations

Station Location Temp. Windchill Dew Point Humidity Wind Precip. Elev Updated Type
                   

Watches & Warnings

There are currently no watches in effect.